Terminal Aerodrome Forecast
Issued by NWS

Home | Current Version | Previous Version | Text Only | Print | Product List | Glossary On
Versions: 1 2 3 4 5 6 7 8 9 10 11 12 13 14 15 16 17 18 19 20 21 22
000
FTUS41 KGYX 170632 AAA
TAFMHT
TAF AMD
KMHT 170632Z 1707/1806 00000KT 1 1/2SM -SN OVC012
     FM170730 00000KT 1SM -SN OVC007
     FM170900 00000KT 1/2SM SN VV005
     FM171600 VRB04KT 1 1/2SM -SN BR OVC007
     FM180200 31004KT P6SM -SHSN OVC015=

USA.gov is the U.S. government's official web portal to all federal, state and local government web resources and services.